Time;durP1;ratioP1;P1;durP2;ratioP2;P2;SDS_P1;SDS_P2;PMS_P1;PMS_P2;Temp;Humidity;BMP_temperature;BMP_pressure;BME280_temperature;BME280_humidity;BME280_pressure;Samples;Min_cycle;Max_cycle;Signal;HPM_P1;HPM_P2
2021/04/10 00:02:25;;;;;;;;;12.20;11.00;;;;;15.93;24.66;98775.00;5630936;28;4971419;-64
2021/04/10 00:05:32;;;;;;;;;10.17;10.17;;;;;15.92;24.79;98761.69;5633824;28;4941881;-64
2021/04/10 00:08:38;;;;;;;;;12.80;11.40;;;;;15.95;24.69;98756.53;5633532;28;4942963;-64
2021/04/10 00:11:41;;;;;;;;;9.00;8.00;;;;;15.99;24.76;98754.09;5619191;28;4872078;-64
2021/04/10 00:14:47;;;;;;;;;12.00;11.00;;;;;15.98;24.87;98752.47;5645863;28;5698435;-64
2021/04/10 00:17:53;;;;;;;;;11.17;11.17;;;;;15.97;25.48;98754.38;5630353;28;5698093;-64
2021/04/10 00:21:00;;;;;;;;;11.00;11.00;;;;;15.96;25.27;98754.63;5617735;28;5696026;-64
2021/04/10 00:24:07;;;;;;;;;13.00;11.00;;;;;15.93;25.48;98741.56;5640304;28;4956489;-64
2021/04/10 00:27:13;;;;;;;;;13.00;12.33;;;;;15.93;25.32;98738.84;5637889;28;4957618;-64
2021/04/10 00:30:19;;;;;;;;;12.00;10.40;;;;;15.87;25.25;98734.44;5640865;28;4937669;-64
2021/04/10 00:33:25;;;;;;;;;11.67;10.67;;;;;16.02;25.38;98735.41;5626618;28;4051331;-64
2021/04/10 00:36:32;;;;;;;;;9.00;9.00;;;;;16.03;25.41;98749.78;5631533;28;4880422;-64
2021/04/10 00:39:37;;;;;;;;;9.40;9.40;;;;;16.10;25.34;98742.25;5622743;28;4911688;-64
2021/04/10 00:42:43;;;;;;;;;11.67;9.67;;;;;16.09;25.73;98737.88;5603400;28;5653301;-64
2021/04/10 00:45:49;;;;;;;;;11.00;9.80;;;;;16.17;25.34;98736.59;5624551;28;4938706;-64
2021/04/10 00:48:53;;;;;;;;;12.00;10.00;;;;;16.21;25.34;98733.06;5628143;28;4944999;-64
2021/04/10 00:52:01;;;;;;;;;10.67;9.83;;;;;16.25;25.70;98738.81;5627993;28;4937727;-64
2021/04/10 00:55:09;;;;;;;;;11.00;10.00;;;;;16.24;25.50;98729.00;5624183;28;4950228;-64
2021/04/10 00:58:15;;;;;;;;;10.00;9.00;;;;;16.28;25.70;98727.38;5639911;28;4900178;-64
2021/04/10 01:01:19;;;;;;;;;11.40;10.00;;;;;16.28;26.00;98721.94;5598302;28;4932505;-64
2021/04/10 01:04:27;;;;;;;;;9.22;8.22;;;;;16.30;25.58;98720.63;5638536;28;4881963;-64
2021/04/10 01:07:31;;;;;;;;;8.60;8.60;;;;;16.28;25.63;98714.59;5625207;28;4886657;-64
2021/04/10 01:10:34;;;;;;;;;11.00;10.00;;;;;16.38;25.62;98724.72;5622993;28;4490803;-64
2021/04/10 01:13:48;;;;;;;;;10.00;9.00;;;;;16.38;25.72;98716.56;5618499;28;4892874;-64
2021/04/10 01:16:58;;;;;;;;;10.00;9.40;;;;;16.33;26.12;98721.97;5611722;28;4938698;-64
2021/04/10 01:20:14;;;;;;;;;9.40;8.60;;;;;16.43;25.68;98722.88;5627165;28;4893944;-64
2021/04/10 01:23:47;;;;;;;;;12.00;10.00;;;;;16.47;25.72;98718.53;5620147;28;4959569;-64
2021/04/10 01:27:17;;;;;;;;;8.22;8.22;;;;;16.51;25.87;98727.00;5637575;28;4878764;-64
2021/04/10 01:30:35;;;;;;;;;8.60;8.00;;;;;16.51;25.84;98724.28;5603309;28;4880434;-64
2021/04/10 01:33:44;;;;;;;;;9.00;8.00;;;;;16.50;25.85;98732.69;5609211;28;4887067;-64
2021/04/10 01:36:52;;;;;;;;;10.00;9.00;;;;;16.46;25.87;98719.63;5643308;28;5638678;-64
2021/04/10 01:39:58;;;;;;;;;10.00;9.00;;;;;16.52;25.92;98723.19;5614324;28;4923481;-64
2021/04/10 01:43:06;;;;;;;;;9.00;8.00;;;;;16.54;25.79;98709.31;5636841;28;4879381;-64
2021/04/10 01:46:13;;;;;;;;;10.00;10.00;;;;;16.48;25.89;98712.00;5639000;28;4949173;-64
2021/04/10 01:49:18;;;;;;;;;10.20;9.80;;;;;16.53;25.87;98704.94;5638563;28;4930418;-64
2021/04/10 01:52:22;;;;;;;;;8.00;8.00;;;;;16.50;26.18;98702.78;5612329;28;4878312;-64
2021/04/10 01:55:30;;;;;;;;;11.00;10.40;;;;;16.48;26.28;98703.03;5615059;28;4919993;-64
2021/04/10 01:58:37;;;;;;;;;11.00;10.00;;;;;16.43;26.23;98709.25;5621584;28;4938750;-64
2021/04/10 02:01:48;;;;;;;;;10.40;10.00;;;;;16.37;26.17;98693.97;5620696;28;4907488;-64
2021/04/10 02:04:53;;;;;;;;;10.33;9.33;;;;;16.41;26.24;98705.19;5611905;28;5643894;-64
2021/04/10 02:08:02;;;;;;;;;12.33;11.00;;;;;16.39;26.20;98697.28;5617116;28;3464905;-64
2021/04/10 02:11:07;;;;;;;;;8.40;8.00;;;;;16.37;26.52;98690.47;5620444;28;4878331;-64
2021/04/10 02:14:28;;;;;;;;;9.40;8.40;;;;;16.32;26.67;98691.22;5597720;28;4878294;-64
2021/04/10 02:17:34;;;;;;;;;8.67;8.00;;;;;16.31;26.37;98697.78;5611295;28;4886677;-64
2021/04/10 02:20:41;;;;;;;;;11.00;10.00;;;;;16.31;26.42;98694.25;5604827;28;4138774;-64
2021/04/10 02:23:47;;;;;;;;;8.00;8.00;;;;;16.28;26.54;98701.00;5625648;28;4884581;-64
2021/04/10 02:27:00;;;;;;;;;10.56;9.00;;;;;16.23;26.59;98695.53;5639005;28;5602574;-64
2021/04/10 02:30:09;;;;;;;;;9.00;8.00;;;;;16.22;26.69;98695.81;5643094;28;4871180;-64
2021/04/10 02:33:26;;;;;;;;;8.29;8.29;;;;;16.22;26.47;98684.94;5643479;28;4855387;-64
2021/04/10 02:36:34;;;;;;;;;9.00;7.33;;;;;16.19;26.91;98686.28;5641624;28;5593889;-64
2021/04/10 02:39:44;;;;;;;;;8.00;7.00;;;;;16.14;26.80;98691.69;5626617;28;4872085;-64
2021/04/10 02:42:49;;;;;;;;;10.00;8.80;;;;;16.07;26.83;98690.28;5615375;28;4904332;-64
2021/04/10 02:46:01;;;;;;;;;9.00;8.50;;;;;15.99;27.00;98686.94;5626355;28;4168926;-64
2021/04/10 02:49:11;;;;;;;;;10.00;8.00;;;;;15.98;26.93;98698.09;5626486;28;5634523;-64
2021/04/10 02:52:25;;;;;;;;;9.00;8.60;;;;;15.97;27.15;98691.03;5635030;28;4156543;-64
2021/04/10 02:55:36;;;;;;;;;9.00;8.88;;;;;15.94;27.30;98689.63;5632575;28;3798735;-64
2021/04/10 02:58:41;;;;;;;;;9.00;8.60;;;;;15.97;27.07;98694.56;5612461;28;4875188;-63
2021/04/10 03:01:47;;;;;;;;;8.00;8.00;;;;;15.97;27.35;98694.56;5624936;28;4872504;-63
2021/04/10 03:04:54;;;;;;;;;10.00;9.60;;;;;15.83;27.52;98695.28;5618710;28;4925173;-64
2021/04/10 03:08:00;;;;;;;;;10.00;9.00;;;;;15.69;27.83;98689.44;5618244;28;4891962;-63
2021/04/10 03:11:10;;;;;;;;;8.00;8.00;;;;;15.49;29.02;98689.25;5624700;28;4875282;-63
2021/04/10 03:14:18;;;;;;;;;9.25;8.00;;;;;15.21;29.44;98695.75;5637297;28;3811700;-63
2021/04/10 03:17:25;;;;;;;;;11.00;8.20;;;;;14.95;29.58;98681.13;5613513;28;4910598;-63
2021/04/10 03:20:38;;;;;;;;;9.60;9.00;;;;;14.74;30.00;98690.09;5623486;28;4879381;-63
2021/04/10 03:23:44;;;;;;;;;10.00;9.80;;;;;14.61;29.82;98696.69;5613339;28;4932489;-63
2021/04/10 03:26:53;;;;;;;;;10.60;10.00;;;;;14.51;30.41;98696.59;5616302;28;4935654;-64
2021/04/10 03:30:08;;;;;;;;;13.00;10.33;;;;;14.38;30.38;98688.81;5612023;28;4948120;-64
2021/04/10 03:33:20;;;;;;;;;10.67;9.67;;;;;14.40;30.61;98699.41;5622788;28;5645027;-63
2021/04/10 03:36:26;;;;;;;;;11.40;10.00;;;;;14.31;30.76;98701.72;5638377;28;4947607;-63
2021/04/10 03:39:32;;;;;;;;;10.00;9.00;;;;;14.00;31.15;98667.09;5597295;28;4911722;-63
2021/04/10 03:42:43;;;;;;;;;13.17;12.00;;;;;13.97;31.27;98690.09;5620606;28;5696011;-63
2021/04/10 03:45:50;;;;;;;;;10.17;10.17;;;;;13.92;31.93;98714.44;5616709;28;5683468;-64
2021/04/10 03:49:04;;;;;;;;;12.00;10.00;;;;;13.78;32.07;98710.41;5617269;28;4929343;-64
2021/04/10 03:52:10;;;;;;;;;11.00;10.20;;;;;13.68;32.44;98702.91;5642062;28;4945348;-64
2021/04/10 03:55:16;;;;;;;;;14.00;12.50;;;;;13.58;32.42;98702.75;5621323;28;5710617;-64
2021/04/10 03:58:23;;;;;;;;;12.67;12.17;;;;;13.48;32.58;98713.44;5613072;28;5698066;-64
2021/04/10 04:01:30;;;;;;;;;12.67;12.00;;;;;13.48;32.37;98705.31;5623241;28;5696004;-64
2021/04/10 04:04:38;;;;;;;;;12.22;11.56;;;;;13.50;32.46;98708.56;5640337;28;5645284;-64
2021/04/10 04:07:45;;;;;;;;;13.00;12.33;;;;;13.41;32.38;98691.91;5628533;28;5700202;-64
2021/04/10 04:10:51;;;;;;;;;12.00;11.00;;;;;13.55;32.19;98702.41;5628788;28;4940802;-64
2021/04/10 04:13:57;;;;;;;;;13.00;12.50;;;;;13.50;32.46;98711.28;5644855;28;5708503;-64
2021/04/10 04:17:04;;;;;;;;;11.60;10.60;;;;;13.47;32.98;98717.19;5635630;28;4958576;-64
2021/04/10 04:20:12;;;;;;;;;10.00;10.00;;;;;13.48;32.47;98721.53;5628504;28;4938863;-64
2021/04/10 04:23:18;;;;;;;;;11.00;10.00;;;;;13.50;32.25;98715.88;5628525;28;4932543;-64
2021/04/10 04:26:21;;;;;;;;;11.00;11.00;;;;;13.49;32.71;98712.34;5631505;28;4940808;-64
2021/04/10 04:29:25;;;;;;;;;10.80;10.00;;;;;13.49;32.84;98716.97;5613749;28;4934581;-64
2021/04/10 04:32:28;;;;;;;;;9.60;9.00;;;;;13.48;32.63;98712.59;5629550;28;4173209;-64
2021/04/10 04:35:32;;;;;;;;;10.00;9.00;;;;;13.54;32.72;98708.88;5632059;28;4914849;-64
2021/04/10 04:38:37;;;;;;;;;9.17;9.00;;;;;13.64;32.65;98712.59;5623007;28;5610622;-64
2021/04/10 04:41:40;;;;;;;;;8.00;8.00;;;;;13.73;32.94;98710.31;5637135;28;4160636;-64
2021/04/10 04:44:44;;;;;;;;;11.00;10.00;;;;;13.81;32.19;98718.84;5631076;28;4937734;-64
2021/04/10 04:47:47;;;;;;;;;10.80;9.80;;;;;13.89;31.96;98721.13;5604059;28;4901238;-64
2021/04/10 04:50:50;;;;;;;;;9.40;9.00;;;;;14.06;31.44;98736.59;5633680;28;4864777;-64
2021/04/10 04:53:59;;;;;;;;;8.00;7.60;;;;;14.31;31.14;98731.53;5667215;28;4871097;-64
2021/04/10 04:57:01;;;;;;;;;8.00;7.00;;;;;14.50;30.96;98735.63;5638985;28;4857472;-64
2021/04/10 05:00:06;;;;;;;;;8.00;8.00;;;;;14.69;30.32;98734.25;5601488;28;4872066;-63
2021/04/10 05:03:09;;;;;;;;;9.00;8.20;;;;;14.84;30.54;98733.63;5637488;28;4863744;-64
2021/04/10 05:06:12;;;;;;;;;10.60;9.00;;;;;15.03;30.51;98734.13;5629344;28;4916844;-63
2021/04/10 05:09:19;;;;;;;;;11.50;9.50;;;;;15.14;30.75;98744.84;5627808;28;4917025;-63
2021/04/10 05:12:22;;;;;;;;;12.00;11.00;;;;;15.20;31.32;98743.00;5629410;28;4333519;-63
2021/04/10 05:15:25;;;;;;;;;10.50;9.25;;;;;15.37;31.02;98732.03;5614042;28;4415945;-63
2021/04/10 05:18:29;;;;;;;;;11.00;10.00;;;;;15.57;31.43;98743.16;5634911;28;4267943;-64
2021/04/10 05:21:32;;;;;;;;;10.60;10.00;;;;;15.63;31.30;98735.88;5603801;28;4927301;-64
2021/04/10 05:24:39;;;;;;;;;12.83;11.00;;;;;15.75;31.03;98739.22;5619403;28;5698098;-64
2021/04/10 05:27:47;;;;;;;;;12.00;11.00;;;;;15.91;31.74;98751.88;5639567;28;5700189;-64
2021/04/10 05:30:53;;;;;;;;;15.14;12.00;;;;;16.02;31.90;98749.00;5633332;28;5712721;-64
2021/04/10 05:33:59;;;;;;;;;12.17;12.00;;;;;16.18;31.74;98749.91;5642580;28;5676611;-64
2021/04/10 05:37:06;;;;;;;;;12.00;11.00;;;;;16.33;31.76;98755.44;5645674;28;5666916;-64
2021/04/10 05:40:13;;;;;;;;;13.33;12.50;;;;;16.48;31.28;98763.72;5644411;28;5688704;-64
2021/04/10 05:43:18;;;;;;;;;11.83;10.83;;;;;16.67;30.12;98757.84;5646705;28;5666889;-63
2021/04/10 05:46:23;;;;;;;;;10.20;9.20;;;;;16.86;29.51;98764.47;5635557;28;4921002;-64
2021/04/10 05:49:27;;;;;;;;;8.00;8.00;;;;;16.99;28.93;98761.28;5625463;28;4861630;-64
2021/04/10 05:52:32;;;;;;;;;9.60;9.00;;;;;17.22;28.85;98763.56;5632070;28;4878320;-64
2021/04/10 05:55:38;;;;;;;;;9.00;8.20;;;;;17.37;28.44;98767.41;5615938;28;4173237;-63
2021/04/10 05:58:42;;;;;;;;;10.00;8.80;;;;;17.51;28.35;98772.06;5640668;28;4914789;-63
2021/04/10 06:01:49;;;;;;;;;8.75;8.00;;;;;17.68;28.08;98767.25;5652376;28;4868926;-63
2021/04/10 06:04:55;;;;;;;;;9.00;8.00;;;;;17.88;27.85;98769.19;5637291;28;4304345;-63
2021/04/10 06:08:03;;;;;;;;;7.90;7.50;;;;;18.01;27.38;98768.63;5660113;28;4874190;-63
2021/04/10 06:11:07;;;;;;;;;9.33;8.00;;;;;17.91;26.93;98743.25;5631396;28;4885635;-63
2021/04/10 06:14:11;;;;;;;;;10.00;9.00;;;;;18.24;26.61;98766.41;5618933;28;4106454;-64
2021/04/10 06:17:16;;;;;;;;;8.00;8.00;;;;;18.45;26.56;98768.88;5643620;28;4873119;-64
2021/04/10 06:20:22;;;;;;;;;8.00;7.00;;;;;18.54;25.96;98774.59;5643281;28;4865796;-64
2021/04/10 06:23:27;;;;;;;;;8.00;8.00;;;;;18.64;25.85;98752.75;5621783;28;4886660;-64
2021/04/10 06:26:35;;;;;;;;;9.44;9.00;;;;;18.96;25.96;98783.22;5627882;28;5589710;-64
2021/04/10 06:29:41;;;;;;;;;7.80;7.00;;;;;19.22;24.99;98783.94;5637243;28;4886621;-64
2021/04/10 06:32:48;;;;;;;;;6.60;6.00;;;;;19.40;24.55;98783.31;5634640;28;4848149;-64
2021/04/10 06:35:51;;;;;;;;;8.67;8.67;;;;;19.47;25.05;98777.56;5617373;28;4861681;-64
2021/04/10 06:38:55;;;;;;;;;8.00;7.00;;;;;19.50;24.46;98777.00;5617563;28;5596023;-64
2021/04/10 06:42:00;;;;;;;;;7.40;6.40;;;;;19.48;23.85;98781.94;5601504;28;4859601;-64
2021/04/10 06:45:06;;;;;;;;;7.00;6.50;;;;;19.46;23.72;98782.22;5600601;28;4862660;-64
2021/04/10 06:48:13;;;;;;;;;7.00;6.83;;;;;19.41;24.11;98789.59;5596395;28;4160675;-64
2021/04/10 06:51:17;;;;;;;;;8.00;6.50;;;;;19.29;24.71;98759.88;5620935;28;4860672;-65
2021/04/10 06:54:23;;;;;;;;;8.40;8.00;;;;;19.68;24.37;98789.22;5585192;28;4871018;-64
2021/04/10 06:57:35;;;;;;;;;7.00;6.00;;;;;19.79;23.67;98791.56;5625066;28;4866192;-64
2021/04/10 07:00:39;;;;;;;;;6.60;6.00;;;;;19.87;22.99;98777.31;5602859;28;4849455;-65
2021/04/10 07:03:46;;;;;;;;;7.40;7.00;;;;;19.96;22.97;98780.25;5616005;28;4874170;-64
2021/04/10 07:06:51;;;;;;;;;8.00;8.00;;;;;20.18;23.12;98780.59;5639419;28;4858920;-65
2021/04/10 07:09:54;;;;;;;;;8.00;7.00;;;;;20.42;22.97;98780.72;5585697;28;4844964;-65
2021/04/10 07:12:58;;;;;;;;;6.00;6.00;;;;;20.65;22.64;98790.06;5603530;28;4160658;-64
2021/04/10 07:16:06;;;;;;;;;5.67;5.67;;;;;20.84;22.14;98784.66;5621572;28;4844921;-64
2021/04/10 07:19:11;;;;;;;;;8.00;7.00;;;;;20.97;22.32;98784.78;5615728;28;4160732;-64
2021/04/10 07:22:16;;;;;;;;;7.00;7.00;;;;;21.22;22.57;98786.44;5615772;28;4872094;-63
2021/04/10 07:25:23;;;;;;;;;6.00;6.00;;;;;21.40;21.74;98779.38;5629517;28;4857145;-63
2021/04/10 07:28:29;;;;;;;;;10.00;9.50;;;;;21.67;21.33;98778.69;5629492;28;4935921;-64
2021/04/10 07:31:33;;;;;;;;;7.00;6.00;;;;;21.89;20.96;98798.16;5624816;28;4868914;-64
2021/04/10 07:34:45;;;;;;;;;7.00;6.20;;;;;21.95;21.19;98791.47;5617316;28;4867927;-64
2021/04/10 07:37:50;;;;;;;;;6.60;6.60;;;;;22.00;21.04;98780.41;5623063;28;4850212;-64
2021/04/10 07:40:55;;;;;;;;;5.17;5.17;;;;;22.02;20.70;98787.25;5639066;28;4849098;-64
2021/04/10 07:44:00;;;;;;;;;5.60;5.20;;;;;22.26;20.80;98789.88;5615910;28;4862074;-64
2021/04/10 07:47:05;;;;;;;;;7.00;7.00;;;;;22.38;20.76;98789.41;5623328;28;4857455;-64
2021/04/10 07:50:16;;;;;;;;;7.00;7.00;;;;;22.67;20.99;98789.19;5630324;28;4857507;-64
2021/04/10 07:53:21;;;;;;;;;7.00;5.60;;;;;22.81;20.54;98792.78;5629121;28;4852388;-64
2021/04/10 07:56:24;;;;;;;;;5.00;5.00;;;;;23.16;19.79;98791.28;5647647;28;4154390;-64
2021/04/10 07:59:31;;;;;;;;;5.00;5.00;;;;;23.52;19.99;98788.59;5628715;28;4322087;-64
2021/04/10 08:02:34;;;;;;;;;6.00;6.00;;;;;23.51;19.00;98793.28;5629506;28;4858568;-64
2021/04/10 08:05:40;;;;;;;;;5.00;4.40;;;;;23.64;19.45;98786.97;5656912;28;4866890;-64
2021/04/10 08:08:53;;;;;;;;;7.00;6.00;;;;;23.71;18.92;98773.56;5634292;28;4857487;-64
2021/04/10 08:11:57;;;;;;;;;6.00;5.00;;;;;23.67;18.70;98786.34;5641725;28;4158872;-64
2021/04/10 08:15:02;;;;;;;;;7.00;6.40;;;;;23.85;18.88;98787.28;5628582;28;4865837;-64
2021/04/10 08:18:24;;;;;;;;;6.00;6.00;;;;;24.17;18.87;98781.59;5657216;28;4143935;-64
2021/04/10 08:21:45;;;;;;;;;7.80;6.00;;;;;24.55;18.95;98776.50;5637262;28;4872054;-64
2021/04/10 08:24:47;;;;;;;;;5.40;5.00;;;;;24.93;18.13;98776.06;5627182;28;4870409;-64
2021/04/10 08:27:50;;;;;;;;;6.00;5.20;;;;;25.15;18.25;98777.94;5634959;28;4861618;-64
2021/04/10 08:30:58;;;;;;;;;6.40;5.60;;;;;25.41;18.13;98771.31;5616753;28;4331940;-64
2021/04/10 08:34:01;;;;;;;;;6.00;6.00;;;;;25.60;17.65;98773.84;5621182;28;4854383;-64
2021/04/10 08:37:08;;;;;;;;;6.80;6.00;;;;;25.74;17.64;98788.31;5635844;28;4861665;-64
2021/04/10 08:40:14;;;;;;;;;6.00;6.00;;;;;25.87;17.55;98775.47;5615019;28;4850196;-64
2021/04/10 08:43:25;;;;;;;;;6.00;5.00;;;;;26.05;16.49;98779.84;5654121;28;4859970;-64
2021/04/10 08:46:31;;;;;;;;;6.60;6.60;;;;;26.10;16.37;98785.22;5635729;28;4859555;-64
2021/04/10 08:49:39;;;;;;;;;5.00;5.00;;;;;26.42;16.79;98772.88;5629405;28;4863768;-64
2021/04/10 08:52:43;;;;;;;;;7.00;6.40;;;;;26.84;16.71;98784.94;5623611;28;4862647;-64
2021/04/10 08:55:46;;;;;;;;;6.00;6.00;;;;;26.70;15.88;98776.84;5603454;28;4850524;-64
2021/04/10 08:58:50;;;;;;;;;5.60;5.00;;;;;26.84;15.97;98773.06;5638277;28;4850263;-64
2021/04/10 09:02:15;;;;;;;;;5.80;5.00;;;;;27.03;15.85;98782.63;5614245;28;4131518;-64
2021/04/10 09:05:19;;;;;;;;;5.00;5.00;;;;;27.11;15.52;98773.47;5623689;28;4842967;-64
2021/04/10 09:08:27;;;;;;;;;5.67;4.78;;;;;27.12;15.54;98774.28;5636063;28;4850188;-64
2021/04/10 09:11:48;;;;;;;;;5.78;5.44;;;;;26.92;15.58;98773.09;5655110;28;4856453;-64
2021/04/10 09:14:55;;;;;;;;;6.00;6.00;;;;;26.82;15.71;98767.88;5641951;28;4865834;-64
2021/04/10 09:18:00;;;;;;;;;5.00;5.00;;;;;27.08;15.84;98763.06;5642701;28;4129340;-64
2021/04/10 09:21:11;;;;;;;;;7.00;6.00;;;;;27.19;15.97;98774.56;5645831;28;4154463;-64
2021/04/10 09:24:22;;;;;;;;;5.40;4.60;;;;;27.05;15.62;98774.00;5586314;28;4866144;-64
2021/04/10 09:27:28;;;;;;;;;5.00;5.00;;;;;27.07;16.25;98752.34;5630394;28;4864751;-64
2021/04/10 09:30:36;;;;;;;;;5.80;5.20;;;;;27.33;16.38;98766.03;5622642;28;4865823;-64
2021/04/10 09:33:40;;;;;;;;;6.00;5.40;;;;;27.60;15.96;98770.28;5633539;28;4834567;-64
2021/04/10 09:36:47;;;;;;;;;6.00;5.60;;;;;28.07;15.85;98771.69;5620344;28;4860585;-64
2021/04/10 09:39:54;;;;;;;;;5.00;5.00;;;;;28.00;14.80;98777.00;5645123;28;4847140;-64
2021/04/10 09:43:04;;;;;;;;;5.00;4.00;;;;;28.13;14.82;98750.97;5664242;28;4162797;-64
2021/04/10 09:46:34;;;;;;;;;6.00;6.00;;;;;28.38;15.13;98763.78;5640802;28;4850215;-64
2021/04/10 09:49:37;;;;;;;;;5.40;5.00;;;;;28.29;14.79;98765.03;5620690;28;4855407;-64
2021/04/10 09:52:42;;;;;;;;;5.00;4.00;;;;;28.47;14.93;98752.59;5627111;28;4861654;-64
2021/04/10 09:55:48;;;;;;;;;6.00;5.00;;;;;28.95;15.13;98746.34;5642500;28;4852707;-64
2021/04/10 09:58:56;;;;;;;;;6.00;5.00;;;;;29.25;14.87;98778.28;5637978;28;4856461;-64
2021/04/10 10:02:00;;;;;;;;;6.00;5.60;;;;;28.75;14.15;98763.88;5637111;28;4854869;-64
2021/04/10 10:05:04;;;;;;;;;6.00;6.00;;;;;28.47;14.91;98757.31;5624249;28;4148623;-64
2021/04/10 10:08:08;;;;;;;;;6.60;5.00;;;;;28.72;15.32;98753.50;5628365;28;4138826;-64
2021/04/10 10:11:16;;;;;;;;;6.00;6.00;;;;;29.07;14.54;98746.38;5656943;28;4856429;-64
2021/04/10 10:14:19;;;;;;;;;4.00;4.00;;;;;29.47;14.07;98762.34;5631075;28;4854737;-64
2021/04/10 10:17:28;;;;;;;;;4.00;4.00;;;;;29.11;14.09;98749.25;5625873;28;4854391;-64
2021/04/10 10:20:31;;;;;;;;;5.75;4.75;;;;;29.01;14.13;98750.50;5641796;28;4121038;-64
2021/04/10 10:23:40;;;;;;;;;5.00;5.00;;;;;28.98;13.93;98750.41;5659256;28;4853269;-64
2021/04/10 10:26:45;;;;;;;;;5.00;5.00;;;;;28.70;13.76;98734.38;5627758;28;4818978;-64
2021/04/10 10:29:49;;;;;;;;;6.40;5.00;;;;;28.88;14.11;98735.03;5636790;28;4148178;-64
2021/04/10 10:32:54;;;;;;;;;5.33;5.00;;;;;29.02;14.22;98712.47;5612994;28;4858521;-64
2021/04/10 10:36:01;;;;;;;;;6.00;5.00;;;;;29.42;13.91;98734.81;5653105;28;4147070;-64
2021/04/10 10:39:05;;;;;;;;;4.80;4.20;;;;;29.21;14.32;98732.13;5619307;28;4148184;-64
2021/04/10 10:42:08;;;;;;;;;5.00;5.00;;;;;29.20;13.99;98730.50;5600346;28;4860596;-64
2021/04/10 10:45:11;;;;;;;;;4.00;3.60;;;;;29.17;14.08;98737.56;5616260;28;4845000;-64
2021/04/10 10:48:22;;;;;;;;;4.00;3.40;;;;;28.96;13.71;98728.53;5612681;28;4840800;-64
2021/04/10 10:51:27;;;;;;;;;5.00;4.60;;;;;29.18;14.47;98707.81;5621134;28;4848128;-66
2021/04/10 10:54:31;;;;;;;;;5.17;5.00;;;;;29.71;13.73;98726.16;5621600;28;4864891;-66
2021/04/10 10:57:35;;;;;;;;;5.00;5.00;;;;;29.32;13.94;98726.94;5626072;28;4845023;-66
2021/04/10 11:00:43;;;;;;;;;4.30;4.00;;;;;29.94;14.64;98721.72;5649581;28;4866818;-66
2021/04/10 11:03:50;;;;;;;;;4.00;4.00;;;;;30.04;13.28;98742.66;5618466;28;4861625;-66
2021/04/10 11:06:58;;;;;;;;;4.33;4.33;;;;;29.64;13.77;98723.97;5623845;28;4143938;-66
2021/04/10 11:10:02;;;;;;;;;5.43;3.00;;;;;29.69;13.80;98725.69;5619394;28;4854454;-66
2021/04/10 11:13:05;;;;;;;;;4.40;4.00;;;;;30.06;13.65;98729.19;5607087;28;4865840;-66
2021/04/10 11:16:08;;;;;;;;;3.20;3.00;;;;;30.25;13.34;98732.09;5617401;28;4875186;-66
2021/04/10 11:19:12;;;;;;;;;5.00;5.00;;;;;30.37;13.18;98722.91;5618688;28;4859602;-66
2021/04/10 11:22:17;;;;;;;;;4.60;4.60;;;;;30.51;13.73;98710.22;5615914;28;4856473;-63
2021/04/10 11:25:20;;;;;;;;;4.00;4.00;;;;;30.43;13.11;98713.94;5618075;28;4848504;-65
2021/04/10 11:28:30;;;;;;;;;5.00;4.00;;;;;30.26;13.14;98717.03;5638611;28;4881449;-65
2021/04/10 11:31:34;;;;;;;;;6.40;6.40;;;;;30.14;12.81;98725.47;5625478;28;4151304;-64
2021/04/10 11:34:40;;;;;;;;;5.00;4.00;;;;;30.09;12.89;98711.81;5619289;28;4882485;-64
2021/04/10 11:37:49;;;;;;;;;5.60;5.60;;;;;30.22;12.88;98713.34;5612047;28;4854362;-65
2021/04/10 11:40:52;;;;;;;;;4.60;4.60;;;;;30.20;12.94;98712.09;5613745;28;4835625;-64
2021/04/10 11:43:55;;;;;;;;;6.00;6.00;;;;;30.27;12.50;98720.63;5602321;28;4859559;-65
2021/04/10 11:47:01;;;;;;;;;3.00;3.00;;;;;30.55;11.34;98713.06;5593030;28;4137711;-65
2021/04/10 11:50:13;;;;;;;;;5.00;4.80;;;;;30.27;11.52;98712.28;5645403;28;4843938;-65
2021/04/10 11:53:21;;;;;;;;;4.00;4.00;;;;;30.55;11.01;98708.31;5615486;28;4860943;-65
2021/04/10 11:56:27;;;;;;;;;3.00;3.00;;;;;30.73;10.75;98696.84;5609502;28;4846002;-65
2021/04/10 11:59:37;;;;;;;;;2.40;2.40;;;;;30.97;10.82;98711.38;5615214;28;4837680;-65
2021/04/10 12:02:43;;;;;;;;;4.00;3.00;;;;;31.06;10.98;98711.22;5637284;28;4837653;-65
2021/04/10 12:05:48;;;;;;;;;3.00;3.00;;;;;31.20;11.06;98707.97;5631543;28;4410593;-64
2021/04/10 12:08:55;;;;;;;;;3.00;3.00;;;;;31.29;10.31;98716.94;5669154;28;4856413;-64
2021/04/10 12:12:00;;;;;;;;;3.00;3.00;;;;;31.19;10.25;98704.38;5623858;28;4864766;-64
2021/04/10 12:15:07;;;;;;;;;4.29;3.71;;;;;30.86;10.72;98715.06;5647644;28;4830420;-65
2021/04/10 12:18:16;;;;;;;;;4.00;4.00;;;;;30.75;10.32;98712.00;5659913;28;4140872;-65
2021/04/10 12:21:20;;;;;;;;;4.60;4.00;;;;;30.73;10.96;98703.22;5623047;28;4132520;-65
2021/04/10 12:24:23;;;;;;;;;4.00;4.00;;;;;30.51;10.95;98701.84;5643464;28;4850163;-64
2021/04/10 12:27:30;;;;;;;;;6.00;5.67;;;;;30.56;11.21;98695.22;5640003;28;4847098;-64
2021/04/10 12:30:35;;;;;;;;;5.00;4.00;;;;;30.48;10.89;98699.00;5643552;28;4882490;-64
2021/04/10 12:33:39;;;;;;;;;4.00;4.00;;;;;30.71;11.19;98691.63;5639480;28;4849111;-65
2021/04/10 12:36:43;;;;;;;;;6.00;4.00;;;;;30.62;11.15;98695.75;5640547;28;4116841;-65
2021/04/10 12:39:47;;;;;;;;;4.60;4.00;;;;;30.53;11.69;98702.31;5622594;28;4818931;-65
2021/04/10 12:42:50;;;;;;;;;4.40;4.40;;;;;30.53;11.68;98698.72;5627617;28;4861680;-65
2021/04/10 12:45:54;;;;;;;;;4.00;4.00;;;;;30.06;10.85;98704.16;5633023;28;4866814;-65
2021/04/10 12:48:57;;;;;;;;;5.00;4.00;;;;;30.03;12.14;98691.78;5639689;28;4830748;-65
2021/04/10 12:52:01;;;;;;;;;4.00;4.00;;;;;30.00;12.56;98695.28;5621367;28;4855791;-65
2021/04/10 12:55:06;;;;;;;;;2.00;2.00;;;;;30.15;12.22;98702.06;5638007;28;4862720;-65
2021/04/10 12:58:12;;;;;;;;;3.00;2.60;;;;;29.81;11.07;98685.97;5596006;28;4867931;-65
2021/04/10 13:01:15;;;;;;;;;5.80;5.00;;;;;29.99;11.58;98703.97;5635863;28;4833549;-65
2021/04/10 13:04:19;;;;;;;;;4.00;4.00;;;;;29.88;11.61;98709.19;5628136;28;4849162;-65
2021/04/10 13:07:24;;;;;;;;;5.33;5.00;;;;;29.62;11.89;98692.94;5622344;28;4151324;-65
2021/04/10 13:10:27;;;;;;;;;5.40;5.40;;;;;29.76;12.02;98698.13;5633659;28;4852662;-65
2021/04/10 13:13:31;;;;;;;;;5.00;4.00;;;;;29.82;12.18;98666.13;5647454;28;4137719;-65
2021/04/10 13:16:33;;;;;;;;;3.60;3.60;;;;;29.85;12.27;98697.97;5620423;28;4866881;-65
2021/04/10 13:19:37;;;;;;;;;5.00;5.00;;;;;29.96;12.15;98694.34;5635142;28;4849197;-65
2021/04/10 13:22:41;;;;;;;;;5.83;5.00;;;;;30.08;12.05;98693.50;5637980;28;4852274;-65
2021/04/10 13:25:47;;;;;;;;;4.60;4.40;;;;;30.09;12.02;98698.72;5609251;28;4849146;-65
2021/04/10 13:28:50;;;;;;;;;5.00;5.00;;;;;30.10;12.36;98689.19;5636253;28;4113759;-65
2021/04/10 13:31:53;;;;;;;;;5.00;5.00;;;;;30.13;12.23;98685.72;5601869;28;4854389;-65
2021/04/10 13:34:55;;;;;;;;;6.00;6.00;;;;;30.06;11.87;98688.28;5624471;28;4856461;-65
2021/04/10 13:38:02;;;;;;;;;8.00;6.00;;;;;30.15;11.97;98690.13;5652875;28;4848480;-65
2021/04/10 13:41:09;;;;;;;;;7.70;6.70;;;;;30.18;11.98;98690.22;5656827;28;4158588;-65
2021/04/10 13:44:17;;;;;;;;;6.00;6.00;;;;;30.13;11.51;98687.69;5658691;28;4857502;-65
2021/04/10 13:47:20;;;;;;;;;5.00;4.00;;;;;30.06;12.09;98679.13;5645061;28;4836694;-65
2021/04/10 13:50:24;;;;;;;;;6.00;5.00;;;;;30.02;12.20;98681.00;5612540;28;4860627;-65
2021/04/10 13:53:30;;;;;;;;;5.00;5.00;;;;;30.07;11.79;98680.75;5638344;28;4138719;-65
2021/04/10 13:56:32;;;;;;;;;4.00;3.60;;;;;30.19;12.57;98683.50;5638832;28;4841883;-65
2021/04/10 13:59:36;;;;;;;;;5.00;4.20;;;;;29.99;11.98;98684.50;5631350;28;4841902;-64
2021/04/10 14:02:39;;;;;;;;;4.00;3.00;;;;;29.81;12.45;98663.72;5611383;28;4879306;-64
2021/04/10 14:05:43;;;;;;;;;4.80;4.00;;;;;29.67;12.72;98684.38;5607691;28;4863725;-64
2021/04/10 14:08:46;;;;;;;;;5.00;4.60;;;;;29.67;12.67;98692.69;5637075;28;4131500;-64
2021/04/10 14:11:49;;;;;;;;;3.00;3.00;;;;;29.46;12.53;98688.50;5633817;28;4877282;-64
2021/04/10 14:14:52;;;;;;;;;5.00;5.00;;;;;29.07;12.31;98699.16;5622290;28;4849193;-64